Time;durP1;ratioP1;P1;durP2;ratioP2;P2;SDS_P1;SDS_P2;PMS_P1;PMS_P2;Temp;Humidity;BMP_temperature;BMP_pressure;BME280_temperature;BME280_humidity;BME280_pressure;Samples;Min_cycle;Max_cycle;Signal;HPM_P1;HPM_P2
2023/05/20 00:00:12;;;;;;;35.63;23.00;;;;;;;;;;5116453;28;20043;-79
2023/05/20 00:02:58;;;;;;;38.33;23.50;;;;;;;;;;5116574;28;20036;-81
2023/05/20 00:05:43;;;;;;;36.28;23.50;;;;;;;;;;5116270;28;20476;-81
2023/05/20 00:08:29;;;;;;;39.45;24.50;;;;;;;;;;5116402;28;20044;-79
2023/05/20 00:11:14;;;;;;;44.10;24.80;;;;;;;;;;5115960;28;20040;-79
2023/05/20 00:14:00;;;;;;;37.13;24.88;;;;;;;;;;5115897;28;20043;-79
2023/05/20 00:16:46;;;;;;;44.20;25.95;;;;;;;;;;5116047;28;20039;-79
2023/05/20 00:19:31;;;;;;;44.88;25.65;;;;;;;;;;5115928;28;20039;-79
2023/05/20 00:22:17;;;;;;;38.10;24.15;;;;;;;;;;5115734;28;20489;-81
2023/05/20 00:25:02;;;;;;;36.58;23.08;;;;;;;;;;5116105;28;20048;-81
2023/05/20 00:27:48;;;;;;;39.80;25.77;;;;;;;;;;5115823;28;20048;-79
2023/05/20 00:30:34;;;;;;;42.33;24.02;;;;;;;;;;5115955;28;20044;-79
2023/05/20 00:33:19;;;;;;;42.25;23.50;;;;;;;;;;5107324;28;20039;-81
2023/05/20 00:36:05;;;;;;;38.50;23.42;;;;;;;;;;5115697;28;20035;-82
2023/05/20 00:38:51;;;;;;;42.08;24.23;;;;;;;;;;5115649;28;20044;-79
2023/05/20 00:41:37;;;;;;;38.67;23.55;;;;;;;;;;5107147;28;20043;-79
2023/05/20 00:44:25;;;;;;;37.33;22.98;;;;;;;;;;5100289;28;20048;-79
2023/05/20 00:47:10;;;;;;;39.80;22.08;;;;;;;;;;5115798;28;20036;-81
2023/05/20 00:49:56;;;;;;;69.43;22.58;;;;;;;;;;5106873;28;20039;-79
2023/05/20 00:52:44;;;;;;;79.55;20.33;;;;;;;;;;5115862;28;20488;-79
2023/05/20 00:55:29;;;;;;;55.72;21.63;;;;;;;;;;5107179;28;20031;-81
2023/05/20 00:58:14;;;;;;;58.58;21.70;;;;;;;;;;5107073;28;20039;-82
2023/05/20 01:01:00;;;;;;;59.78;21.98;;;;;;;;;;5106580;28;20043;-80
2023/05/20 01:03:45;;;;;;;54.13;23.00;;;;;;;;;;5114961;28;20047;-79
2023/05/20 01:06:32;;;;;;;59.63;22.67;;;;;;;;;;5106685;28;20043;-80
2023/05/20 01:09:18;;;;;;;51.95;24.33;;;;;;;;;;5115249;28;20047;-81
2023/05/20 01:12:08;;;;;;;88.10;28.73;;;;;;;;;;5100788;28;20032;-81
2023/05/20 01:15:10;;;;;;;80.85;25.77;;;;;;;;;;5115169;28;20040;-82
2023/05/20 01:18:07;;;;;;;87.68;23.73;;;;;;;;;;5115042;28;20035;-79
2023/05/20 01:21:00;;;;;;;84.25;23.50;;;;;;;;;;5106779;28;20047;-79
2023/05/20 01:23:46;;;;;;;61.17;27.67;;;;;;;;;;5114719;28;20035;-82
2023/05/20 01:26:37;;;;;;;64.13;25.00;;;;;;;;;;5114723;28;20039;-81
2023/05/20 01:29:24;;;;;;;45.42;25.20;;;;;;;;;;5114741;28;20051;-80
2023/05/20 01:32:18;;;;;;;57.45;23.00;;;;;;;;;;5114716;28;20048;-82
2023/05/20 01:35:04;;;;;;;87.97;25.08;;;;;;;;;;5114546;28;20036;-82
2023/05/20 01:37:51;;;;;;;57.08;25.08;;;;;;;;;;5114760;28;20040;-82
2023/05/20 01:40:38;;;;;;;86.15;22.90;;;;;;;;;;5114773;28;20102;-81
2023/05/20 01:43:25;;;;;;;69.03;24.65;;;;;;;;;;5106160;28;20044;-82
2023/05/20 01:46:11;;;;;;;82.30;21.40;;;;;;;;;;5105949;28;20048;-80
2023/05/20 01:48:56;;;;;;;88.93;25.70;;;;;;;;;;5106043;28;20043;-80
2023/05/20 01:51:41;;;;;;;62.70;25.63;;;;;;;;;;5105788;28;20047;-82
2023/05/20 01:54:28;;;;;;;64.95;25.90;;;;;;;;;;5106112;28;20048;-79
2023/05/20 01:57:13;;;;;;;78.20;25.35;;;;;;;;;;5105718;28;20039;-79
2023/05/20 01:59:58;;;;;;;64.72;24.95;;;;;;;;;;5105846;28;20059;-82
2023/05/20 02:02:44;;;;;;;61.20;26.27;;;;;;;;;;5105947;28;20039;-80
2023/05/20 02:05:30;;;;;;;40.83;24.95;;;;;;;;;;5105969;28;20031;-79
2023/05/20 02:08:16;;;;;;;124.05;25.88;;;;;;;;;;5114138;28;20043;-80
2023/05/20 02:11:02;;;;;;;118.90;25.23;;;;;;;;;;5102369;28;20044;-82
2023/05/20 02:13:49;;;;;;;99.95;23.90;;;;;;;;;;5114027;28;20044;-82
2023/05/20 02:16:34;;;;;;;98.13;25.35;;;;;;;;;;5105430;28;20047;-82
2023/05/20 02:19:22;;;;;;;71.20;25.10;;;;;;;;;;5105860;28;20043;-79
2023/05/20 02:22:07;;;;;;;81.75;25.38;;;;;;;;;;5113944;28;20044;-80
2023/05/20 02:24:53;;;;;;;103.47;25.20;;;;;;;;;;5113661;28;20035;-80
2023/05/20 02:27:39;;;;;;;81.60;27.52;;;;;;;;;;5113923;28;20043;-80
2023/05/20 02:30:26;;;;;;;62.97;26.50;;;;;;;;;;5114074;28;20493;-82
2023/05/20 02:33:12;;;;;;;86.15;26.38;;;;;;;;;;5105557;28;20073;-79
2023/05/20 02:35:57;;;;;;;82.90;26.42;;;;;;;;;;5105220;28;20043;-79
2023/05/20 02:38:43;;;;;;;99.13;26.27;;;;;;;;;;5104099;28;20485;-81
2023/05/20 02:41:29;;;;;;;86.90;24.48;;;;;;;;;;5113763;28;20043;-79
2023/05/20 02:44:15;;;;;;;53.80;24.98;;;;;;;;;;5113789;28;20040;-80
2023/05/20 02:47:01;;;;;;;57.15;26.00;;;;;;;;;;5105403;28;20392;-80
2023/05/20 02:49:46;;;;;;;40.25;24.02;;;;;;;;;;5113764;28;20039;-80
2023/05/20 02:52:32;;;;;;;38.88;23.98;;;;;;;;;;5113736;28;20048;-79
2023/05/20 02:55:18;;;;;;;44.30;22.13;;;;;;;;;;5091108;28;20044;-82
2023/05/20 02:58:03;;;;;;;44.92;22.45;;;;;;;;;;5105464;28;20040;-80
2023/05/20 03:00:52;;;;;;;52.60;23.00;;;;;;;;;;5105455;28;20039;-80
2023/05/20 03:03:39;;;;;;;44.50;22.73;;;;;;;;;;5105039;28;20039;-79
2023/05/20 03:06:25;;;;;;;53.42;21.88;;;;;;;;;;5105398;28;20048;-81
2023/05/20 03:09:11;;;;;;;49.83;23.95;;;;;;;;;;5105073;28;20043;-80
2023/05/20 03:11:57;;;;;;;48.42;24.38;;;;;;;;;;5099563;28;20044;-80
2023/05/20 03:14:43;;;;;;;49.97;24.45;;;;;;;;;;5105594;28;20052;-80
2023/05/20 03:17:28;;;;;;;56.28;25.55;;;;;;;;;;5104956;28;20393;-80
2023/05/20 03:20:16;;;;;;;76.95;24.05;;;;;;;;;;5104874;28;20043;-81
2023/05/20 03:23:03;;;;;;;51.92;24.20;;;;;;;;;;5108149;28;20036;-80
2023/05/20 03:25:48;;;;;;;52.60;25.60;;;;;;;;;;5108772;28;20047;-81
2023/05/20 03:28:35;;;;;;;53.33;25.58;;;;;;;;;;5117016;28;20469;-80
2023/05/20 03:31:20;;;;;;;63.35;24.15;;;;;;;;;;5108479;28;20039;-83
2023/05/20 03:34:07;;;;;;;49.33;24.67;;;;;;;;;;5108794;28;20388;-82
2023/05/20 03:36:53;;;;;;;46.97;24.55;;;;;;;;;;5108192;28;20501;-81
2023/05/20 03:39:38;;;;;;;53.53;25.08;;;;;;;;;;5093976;28;20048;-82
2023/05/20 03:42:24;;;;;;;47.45;23.73;;;;;;;;;;5108344;28;20047;-82
2023/05/20 03:45:10;;;;;;;46.92;23.90;;;;;;;;;;5107904;28;20043;-82
2023/05/20 03:48:03;;;;;;;39.70;24.10;;;;;;;;;;5108572;28;20051;-82
2023/05/20 03:50:50;;;;;;;43.20;24.85;;;;;;;;;;5107978;28;20039;-82
2023/05/20 03:53:36;;;;;;;50.33;24.02;;;;;;;;;;5108070;28;20048;-80
2023/05/20 03:56:22;;;;;;;47.20;23.75;;;;;;;;;;5108324;28;20039;-80
2023/05/20 03:59:07;;;;;;;43.63;23.08;;;;;;;;;;5107943;28;20043;-80
2023/05/20 04:01:53;;;;;;;39.55;22.92;;;;;;;;;;5108181;28;20035;-82
2023/05/20 04:04:41;;;;;;;39.85;22.90;;;;;;;;;;5093508;28;20040;-82
2023/05/20 04:07:28;;;;;;;40.83;23.30;;;;;;;;;;5107703;28;20480;-82
2023/05/20 04:10:15;;;;;;;37.00;23.13;;;;;;;;;;5107147;28;20039;-86
2023/05/20 04:13:00;;;;;;;32.85;22.25;;;;;;;;;;5116097;28;20032;-80
2023/05/20 04:15:46;;;;;;;33.55;21.85;;;;;;;;;;5107853;28;20477;-83
2023/05/20 04:18:31;;;;;;;36.83;21.20;;;;;;;;;;5107561;28;20040;-80
2023/05/20 04:21:18;;;;;;;40.70;21.55;;;;;;;;;;5115874;28;20044;-82
2023/05/20 04:24:03;;;;;;;40.15;22.60;;;;;;;;;;5107152;28;20039;-82
2023/05/20 04:26:50;;;;;;;44.15;23.80;;;;;;;;;;5107566;28;20055;-80
2023/05/20 04:29:35;;;;;;;38.28;21.92;;;;;;;;;;5107838;28;20036;-83
2023/05/20 04:32:21;;;;;;;43.83;23.25;;;;;;;;;;5092941;28;20043;-80
2023/05/20 04:35:10;;;;;;;45.47;23.63;;;;;;;;;;5107062;28;20041;-80
2023/05/20 04:37:56;;;;;;;50.55;24.38;;;;;;;;;;5107772;28;20047;-80
2023/05/20 04:40:42;;;;;;;48.50;24.27;;;;;;;;;;5115696;28;20047;-79
2023/05/20 04:43:32;;;;;;;48.45;25.88;;;;;;;;;;5116022;28;20100;-80
2023/05/20 04:46:17;;;;;;;48.15;25.25;;;;;;;;;;5107119;28;20043;-82
2023/05/20 04:49:03;;;;;;;58.05;27.00;;;;;;;;;;5092775;28;20059;-82
2023/05/20 04:51:48;;;;;;;49.58;26.00;;;;;;;;;;5107116;28;20043;-82
2023/05/20 04:54:34;;;;;;;58.80;26.80;;;;;;;;;;5115340;28;20492;-80
2023/05/20 04:57:21;;;;;;;50.95;26.08;;;;;;;;;;5107054;28;20039;-82
2023/05/20 05:00:11;;;;;;;52.03;25.00;;;;;;;;;;5107297;28;20057;-80
2023/05/20 05:02:56;;;;;;;57.72;27.73;;;;;;;;;;5115082;28;20047;-80
2023/05/20 05:05:43;;;;;;;49.90;24.98;;;;;;;;;;5106585;28;20047;-80
2023/05/20 05:08:28;;;;;;;55.05;25.45;;;;;;;;;;5106599;28;20422;-80
2023/05/20 05:11:13;;;;;;;47.78;24.88;;;;;;;;;;5103111;28;20048;-80
2023/05/20 05:14:00;;;;;;;48.47;25.15;;;;;;;;;;5106788;28;20043;-80
2023/05/20 05:16:46;;;;;;;47.65;24.63;;;;;;;;;;5106326;28;20480;-82
2023/05/20 05:19:31;;;;;;;54.63;24.13;;;;;;;;;;5114991;28;20044;-78
2023/05/20 05:22:16;;;;;;;50.97;24.88;;;;;;;;;;5106274;28;20036;-83
2023/05/20 05:25:02;;;;;;;52.75;25.02;;;;;;;;;;5114500;28;20039;-80
2023/05/20 05:27:49;;;;;;;47.72;22.98;;;;;;;;;;5114690;28;20047;-82
2023/05/20 05:30:36;;;;;;;42.33;21.85;;;;;;;;;;5105978;28;20039;-80
2023/05/20 05:33:21;;;;;;;49.47;23.20;;;;;;;;;;5115333;28;20083;-81
2023/05/20 05:36:06;;;;;;;52.60;23.95;;;;;;;;;;5106108;28;20047;-80
2023/05/20 05:38:52;;;;;;;46.17;22.77;;;;;;;;;;5106591;28;20035;-80
2023/05/20 05:41:38;;;;;;;46.97;24.08;;;;;;;;;;5091808;28;20039;-82
2023/05/20 05:44:24;;;;;;;49.38;24.13;;;;;;;;;;5105335;28;20480;-83
2023/05/20 05:47:10;;;;;;;42.80;22.70;;;;;;;;;;5105816;28;20043;-83
2023/05/20 05:49:56;;;;;;;49.35;22.77;;;;;;;;;;5106262;28;20036;-84
2023/05/20 05:52:41;;;;;;;52.80;23.25;;;;;;;;;;5099294;28;20043;-82
2023/05/20 05:55:28;;;;;;;42.08;22.98;;;;;;;;;;5106554;28;20032;-82
2023/05/20 05:58:13;;;;;;;42.97;23.10;;;;;;;;;;5105682;28;20493;-84
2023/05/20 06:01:00;;;;;;;47.40;23.92;;;;;;;;;;5105674;28;20402;-84
2023/05/20 06:03:46;;;;;;;43.72;23.02;;;;;;;;;;5091499;28;20035;-82
2023/05/20 06:06:35;;;;;;;46.05;22.63;;;;;;;;;;5114353;28;20044;-82
2023/05/20 06:09:20;;;;;;;47.58;22.67;;;;;;;;;;5114206;28;20039;-84
2023/05/20 06:12:06;;;;;;;39.15;22.63;;;;;;;;;;5099930;28;20059;-80
2023/05/20 06:14:52;;;;;;;49.85;23.98;;;;;;;;;;5106335;28;20416;-84
2023/05/20 06:17:40;;;;;;;45.28;23.38;;;;;;;;;;5091039;28;20040;-82
2023/05/20 06:20:26;;;;;;;43.15;23.45;;;;;;;;;;5105640;28;20481;-82
2023/05/20 06:23:11;;;;;;;46.45;23.65;;;;;;;;;;5105601;28;20036;-81
2023/05/20 06:26:06;;;;;;;38.95;22.67;;;;;;;;;;5105489;28;20051;-84
2023/05/20 06:28:52;;;;;;;47.90;25.00;;;;;;;;;;5105289;28;20424;-81
2023/05/20 06:31:37;;;;;;;44.80;24.90;;;;;;;;;;5091483;28;20473;-84
2023/05/20 06:34:23;;;;;;;42.72;24.65;;;;;;;;;;5113841;28;20396;-81
2023/05/20 06:37:07;;;;;;;58.38;27.27;;;;;;;;;;5105393;28;20039;-83
2023/05/20 06:39:53;;;;;;;68.43;29.40;;;;;;;;;;5105384;28;20047;-79
2023/05/20 06:42:38;;;;;;;47.72;26.75;;;;;;;;;;5113977;28;20035;-78
2023/05/20 06:45:25;;;;;;;105.13;35.67;;;;;;;;;;5120857;28;20047;-77
2023/05/20 06:48:14;;;;;;;56.97;26.70;;;;;;;;;;5106922;28;20063;-76
2023/05/20 06:50:59;;;;;;;50.47;26.70;;;;;;;;;;5107675;28;20040;-78
2023/05/20 06:53:45;;;;;;;49.78;27.25;;;;;;;;;;5105340;28;20043;-81
2023/05/20 06:56:32;;;;;;;80.43;29.55;;;;;;;;;;5108477;28;20039;-76
2023/05/20 06:59:17;;;;;;;42.90;22.92;;;;;;;;;;5111053;28;20039;-77
2023/05/20 07:02:03;;;;;;;44.38;23.88;;;;;;;;;;5108949;28;20036;-78
2023/05/20 07:04:48;;;;;;;43.15;22.90;;;;;;;;;;5109019;28;20039;-77
2023/05/20 07:07:38;;;;;;;37.28;21.85;;;;;;;;;;5108625;28;20040;-78
2023/05/20 07:10:23;;;;;;;38.35;22.45;;;;;;;;;;5107768;28;20045;-80
2023/05/20 07:13:09;;;;;;;42.53;23.30;;;;;;;;;;5109050;28;20055;-81
2023/05/20 07:15:55;;;;;;;38.05;21.67;;;;;;;;;;5108277;28;20043;-79
2023/05/20 07:18:40;;;;;;;34.17;20.38;;;;;;;;;;5107649;28;20039;-78
2023/05/20 07:21:26;;;;;;;50.60;23.77;;;;;;;;;;5107553;28;20497;-78
2023/05/20 07:24:35;;;;;;;41.40;21.27;;;;;;;;;;5115148;28;20047;-81
2023/05/20 07:27:23;;;;;;;35.92;21.70;;;;;;;;;;5117305;28;20051;-78
2023/05/20 07:30:08;;;;;;;35.53;20.63;;;;;;;;;;5108458;28;20039;-82
2023/05/20 07:32:55;;;;;;;37.20;21.65;;;;;;;;;;5108359;28;20035;-81
2023/05/20 07:35:43;;;;;;;47.58;23.17;;;;;;;;;;5108560;28;20048;-76
2023/05/20 07:38:31;;;;;;;38.83;22.10;;;;;;;;;;5108614;28;20048;-76
2023/05/20 07:41:31;;;;;;;39.80;20.30;;;;;;;;;;5108060;28;20473;-82
2023/05/20 07:44:21;;;;;;;39.97;21.02;;;;;;;;;;5108821;28;20039;-80
2023/05/20 07:47:09;;;;;;;35.35;19.42;;;;;;;;;;5108358;28;20393;-80
2023/05/20 07:49:54;;;;;;;27.63;17.70;;;;;;;;;;5108338;28;20388;-82
2023/05/20 07:52:40;;;;;;;31.42;17.85;;;;;;;;;;5107861;28;20040;-83
2023/05/20 07:55:26;;;;;;;30.17;17.48;;;;;;;;;;5116240;28;20397;-77
2023/05/20 07:58:11;;;;;;;26.55;15.93;;;;;;;;;;5116338;28;20075;-79
2023/05/20 08:00:58;;;;;;;31.77;17.77;;;;;;;;;;5106513;28;20039;-81
2023/05/20 08:03:45;;;;;;;25.95;17.10;;;;;;;;;;5107613;28;20040;-80
2023/05/20 08:06:34;;;;;;;55.65;22.80;;;;;;;;;;5107397;28;20048;-81
2023/05/20 08:09:20;;;;;;;35.28;20.70;;;;;;;;;;5106304;28;20039;-82
2023/05/20 08:12:09;;;;;;;56.20;29.08;;;;;;;;;;5100900;28;20052;-83
2023/05/20 08:14:55;;;;;;;27.60;15.27;;;;;;;;;;5107184;28;20048;-80
2023/05/20 08:17:40;;;;;;;26.25;15.90;;;;;;;;;;5107172;28;20044;-80
2023/05/20 08:20:26;;;;;;;24.38;15.05;;;;;;;;;;5116439;28;20472;-77
2023/05/20 08:23:12;;;;;;;26.23;14.85;;;;;;;;;;5115949;28;20035;-77
2023/05/20 08:26:01;;;;;;;24.95;14.40;;;;;;;;;;5115474;28;20043;-78
2023/05/20 08:28:49;;;;;;;23.13;13.60;;;;;;;;;;5107575;28;20043;-78
2023/05/20 08:31:35;;;;;;;26.30;13.07;;;;;;;;;;5116210;28;20051;-78
2023/05/20 08:34:21;;;;;;;19.83;12.48;;;;;;;;;;5107588;28;20047;-76
2023/05/20 08:37:06;;;;;;;17.08;11.15;;;;;;;;;;5116299;28;20384;-82
2023/05/20 08:39:52;;;;;;;15.38;10.10;;;;;;;;;;5106623;28;20044;-82
2023/05/20 08:42:42;;;;;;;17.23;11.80;;;;;;;;;;5107890;28;20035;-83
2023/05/20 08:45:31;;;;;;;16.48;11.52;;;;;;;;;;5108505;28;20032;-84
2023/05/20 08:48:22;;;;;;;14.05;9.75;;;;;;;;;;5108586;28;20095;-82
2023/05/20 08:51:10;;;;;;;17.63;11.18;;;;;;;;;;5114832;28;20047;-82
2023/05/20 08:53:55;;;;;;;18.35;10.35;;;;;;;;;;5114754;28;20066;-83
2023/05/20 08:56:41;;;;;;;19.02;9.27;;;;;;;;;;5115174;28;20048;-82
2023/05/20 08:59:26;;;;;;;14.38;9.45;;;;;;;;;;5115484;28;20051;-82
2023/05/20 09:02:12;;;;;;;12.80;9.05;;;;;;;;;;5115686;28;20043;-82
2023/05/20 09:05:03;;;;;;;14.07;8.25;;;;;;;;;;5115832;28;20039;-84
2023/05/20 09:07:48;;;;;;;17.88;8.40;;;;;;;;;;5106853;28;20051;-83
2023/05/20 09:10:35;;;;;;;10.65;7.45;;;;;;;;;;5107348;28;20040;-83
2023/05/20 09:13:20;;;;;;;14.20;8.43;;;;;;;;;;5074121;28;20037;-81
2023/05/20 09:16:06;;;;;;;14.63;8.52;;;;;;;;;;5074610;28;20040;-83
2023/05/20 09:18:54;;;;;;;11.98;8.77;;;;;;;;;;5073233;28;20052;-82
2023/05/20 09:21:40;;;;;;;7.22;5.72;;;;;;;;;;5074368;28;20044;-82
2023/05/20 09:24:25;;;;;;;12.18;7.30;;;;;;;;;;5074535;28;20394;-82
2023/05/20 09:27:12;;;;;;;9.52;6.18;;;;;;;;;;5080100;28;20041;-82
2023/05/20 09:29:58;;;;;;;9.15;5.72;;;;;;;;;;5074414;28;20045;-81
2023/05/20 09:32:44;;;;;;;10.77;7.35;;;;;;;;;;5074293;28;20060;-81
2023/05/20 09:35:30;;;;;;;12.70;7.70;;;;;;;;;;5073834;28;20044;-81
2023/05/20 09:38:16;;;;;;;10.35;7.32;;;;;;;;;;5073983;28;20048;-81
2023/05/20 09:41:12;;;;;;;11.15;7.97;;;;;;;;;;5074151;28;20044;-82
2023/05/20 09:43:58;;;;;;;8.68;5.82;;;;;;;;;;5073799;28;20402;-81
2023/05/20 09:46:46;;;;;;;9.38;6.05;;;;;;;;;;5073902;28;20040;-82
2023/05/20 09:49:34;;;;;;;12.75;6.40;;;;;;;;;;5074019;28;20037;-78
2023/05/20 09:52:20;;;;;;;7.03;5.78;;;;;;;;;;5073834;28;20378;-78
2023/05/20 09:55:05;;;;;;;13.10;6.78;;;;;;;;;;5073743;28;20044;-83
2023/05/20 09:57:52;;;;;;;10.68;5.88;;;;;;;;;;5073971;28;20036;-83
2023/05/20 10:00:37;;;;;;;7.45;5.00;;;;;;;;;;5073886;28;20048;-84
2023/05/20 10:03:26;;;;;;;8.65;4.75;;;;;;;;;;5073588;28;20486;-84
2023/05/20 10:06:26;;;;;;;6.72;4.03;;;;;;;;;;5073332;28;20419;-83
2023/05/20 10:09:32;;;;;;;6.65;3.53;;;;;;;;;;5073814;28;20045;-83
2023/05/20 10:12:45;;;;;;;8.02;4.45;;;;;;;;;;5110224;28;20043;-80
2023/05/20 10:15:43;;;;;;;5.82;3.88;;;;;;;;;;5114284;28;20469;-82
2023/05/20 10:18:49;;;;;;;6.90;4.18;;;;;;;;;;5098831;28;20039;-80
2023/05/20 10:21:34;;;;;;;8.63;4.20;;;;;;;;;;5083012;28;20036;-83
2023/05/20 10:24:29;;;;;;;8.82;4.13;;;;;;;;;;5113880;28;20048;-80
2023/05/20 10:27:17;;;;;;;8.13;5.13;;;;;;;;;;5114358;28;20036;-84
2023/05/20 10:30:03;;;;;;;5.90;4.43;;;;;;;;;;5113639;28;20469;-81
2023/05/20 10:32:55;;;;;;;6.20;3.92;;;;;;;;;;5118299;28;20476;-80
2023/05/20 10:35:47;;;;;;;6.93;4.30;;;;;;;;;;5118599;28;20461;-83
2023/05/20 10:38:32;;;;;;;9.25;4.43;;;;;;;;;;5117923;28;20052;-79
2023/05/20 10:41:27;;;;;;;7.38;4.20;;;;;;;;;;5117835;28;20039;-79
2023/05/20 10:44:12;;;;;;;13.18;4.13;;;;;;;;;;5121019;28;20048;-79
2023/05/20 10:47:02;;;;;;;5.88;3.65;;;;;;;;;;5121661;28;20044;-79
2023/05/20 10:49:47;;;;;;;5.60;3.63;;;;;;;;;;5118235;28;20043;-82
2023/05/20 10:52:36;;;;;;;4.78;3.95;;;;;;;;;;5118665;28;20043;-81
2023/05/20 10:55:22;;;;;;;6.53;4.32;;;;;;;;;;5117699;28;20047;-84
2023/05/20 10:58:09;;;;;;;7.72;3.80;;;;;;;;;;5108754;28;20044;-84
2023/05/20 11:00:55;;;;;;;5.05;3.83;;;;;;;;;;5115426;28;20040;-84
2023/05/20 11:03:42;;;;;;;7.07;3.83;;;;;;;;;;5124005;28;20035;-83
2023/05/20 11:06:28;;;;;;;9.52;4.55;;;;;;;;;;5123648;28;20043;-84
2023/05/20 11:09:15;;;;;;;7.43;4.40;;;;;;;;;;5123010;28;20044;-78
2023/05/20 11:12:01;;;;;;;6.40;4.50;;;;;;;;;;5122205;28;20039;-81
2023/05/20 11:14:48;;;;;;;5.70;4.22;;;;;;;;;;5122474;28;20047;-81
2023/05/20 11:17:33;;;;;;;8.68;4.38;;;;;;;;;;5121447;28;20039;-81
2023/05/20 11:20:19;;;;;;;10.18;5.85;;;;;;;;;;5117630;28;20036;-77
2023/05/20 11:23:05;;;;;;;8.00;5.50;;;;;;;;;;5117350;28;20047;-77
2023/05/20 11:25:51;;;;;;;7.05;4.63;;;;;;;;;;5116501;28;20389;-77
2023/05/20 11:28:37;;;;;;;5.65;3.92;;;;;;;;;;5116851;28;20047;-77
2023/05/20 11:31:23;;;;;;;7.45;4.13;;;;;;;;;;5117101;28;20035;-80
2023/05/20 11:34:09;;;;;;;5.63;4.60;;;;;;;;;;5114180;28;20051;-83
2023/05/20 11:36:56;;;;;;;8.88;4.80;;;;;;;;;;5114757;28;20048;-78
2023/05/20 11:39:48;;;;;;;8.90;5.47;;;;;;;;;;5118539;28;20043;-82
2023/05/20 11:42:42;;;;;;;9.07;5.00;;;;;;;;;;5115010;28;20051;-78
2023/05/20 11:45:40;;;;;;;7.45;4.60;;;;;;;;;;5116231;28;20397;-82
2023/05/20 11:48:25;;;;;;;6.03;5.30;;;;;;;;;;5115919;28;20047;-87
2023/05/20 11:51:11;;;;;;;6.75;4.88;;;;;;;;;;5108511;28;20481;-83
2023/05/20 11:54:01;;;;;;;7.25;4.53;;;;;;;;;;5116719;28;20521;-84
2023/05/20 11:56:46;;;;;;;7.32;5.00;;;;;;;;;;5101242;28;20400;-81
2023/05/20 11:59:31;;;;;;;10.60;5.80;;;;;;;;;;5116287;28;20043;-84
2023/05/20 12:02:17;;;;;;;8.90;4.90;;;;;;;;;;5116286;28;20395;-82
2023/05/20 12:05:07;;;;;;;7.15;4.82;;;;;;;;;;5117227;28;20476;-84
2023/05/20 12:07:52;;;;;;;7.00;5.38;;;;;;;;;;5115352;28;20047;-84
2023/05/20 12:10:37;;;;;;;9.75;5.20;;;;;;;;;;5116269;28;20043;-84
2023/05/20 12:13:23;;;;;;;6.88;4.97;;;;;;;;;;5106157;28;20102;-81
2023/05/20 12:16:09;;;;;;;7.45;5.47;;;;;;;;;;5116015;28;20403;-82
2023/05/20 12:18:54;;;;;;;8.27;5.13;;;;;;;;;;5116715;28;20043;-82
2023/05/20 12:21:40;;;;;;;8.40;4.78;;;;;;;;;;5116066;28;20392;-81
2023/05/20 12:24:25;;;;;;;8.23;5.28;;;;;;;;;;5115780;28;20043;-79
2023/05/20 12:27:11;;;;;;;5.78;4.40;;;;;;;;;;5100681;28;20036;-80
2023/05/20 12:29:56;;;;;;;6.88;4.75;;;;;;;;;;5115846;28;20048;-82
2023/05/20 12:32:42;;;;;;;11.02;5.13;;;;;;;;;;5115740;28;20469;-84
2023/05/20 12:35:38;;;;;;;8.80;4.88;;;;;;;;;;5115907;28;20389;-79
2023/05/20 12:38:24;;;;;;;8.15;4.43;;;;;;;;;;5100178;28;20047;-81
2023/05/20 12:41:10;;;;;;;7.53;4.72;;;;;;;;;;5115933;28;20404;-82
2023/05/20 12:43:55;;;;;;;5.40;4.22;;;;;;;;;;5115451;28;20477;-79
2023/05/20 12:46:41;;;;;;;7.03;4.50;;;;;;;;;;5115412;28;20401;-80
2023/05/20 12:49:26;;;;;;;5.55;4.60;;;;;;;;;;5114975;28;20051;-82
2023/05/20 12:52:12;;;;;;;10.88;4.60;;;;;;;;;;5115272;28;20516;-82
2023/05/20 12:54:57;;;;;;;4.72;3.63;;;;;;;;;;5114747;28;20043;-82
2023/05/20 12:57:43;;;;;;;6.90;3.50;;;;;;;;;;5115161;28;20047;-80
2023/05/20 13:00:30;;;;;;;6.57;4.25;;;;;;;;;;5115016;28;20055;-81
2023/05/20 13:03:16;;;;;;;10.23;4.30;;;;;;;;;;5115127;28;20044;-79
2023/05/20 13:06:02;;;;;;;8.35;4.88;;;;;;;;;;5114995;28;20059;-81
2023/05/20 13:08:47;;;;;;;9.20;3.95;;;;;;;;;;5115294;28;20052;-81
2023/05/20 13:11:33;;;;;;;7.32;3.90;;;;;;;;;;5114292;28;20057;-80
2023/05/20 13:14:20;;;;;;;6.03;4.28;;;;;;;;;;5114459;28;20500;-81
2023/05/20 13:17:06;;;;;;;6.07;4.45;;;;;;;;;;5114660;28;20043;-80
2023/05/20 13:19:51;;;;;;;6.85;4.50;;;;;;;;;;5114689;28;20051;-83
2023/05/20 13:22:36;;;;;;;7.72;4.57;;;;;;;;;;5114996;28;20044;-82
2023/05/20 13:25:23;;;;;;;11.45;5.72;;;;;;;;;;5114742;28;20043;-81
2023/05/20 13:28:09;;;;;;;6.55;4.68;;;;;;;;;;5115314;28;20036;-84
2023/05/20 13:30:55;;;;;;;8.18;4.53;;;;;;;;;;5115068;28;20489;-82
2023/05/20 13:33:40;;;;;;;7.50;4.75;;;;;;;;;;5116509;28;20039;-83
2023/05/20 13:36:26;;;;;;;10.23;5.00;;;;;;;;;;5118943;28;20043;-84
2023/05/20 13:39:11;;;;;;;7.40;4.25;;;;;;;;;;5116458;28;20492;-85
2023/05/20 13:41:57;;;;;;;8.18;4.45;;;;;;;;;;5116697;28;20047;-80
2023/05/20 13:44:42;;;;;;;7.15;4.90;;;;;;;;;;5117418;28;20047;-86
2023/05/20 13:47:27;;;;;;;6.72;4.13;;;;;;;;;;5114533;28;20048;-82
2023/05/20 13:50:12;;;;;;;7.10;4.45;;;;;;;;;;5105094;28;20043;-82
2023/05/20 13:52:58;;;;;;;8.57;3.67;;;;;;;;;;5115952;28;20059;-85
2023/05/20 13:55:44;;;;;;;7.72;3.80;;;;;;;;;;5116548;28;20047;-85
2023/05/20 13:58:29;;;;;;;6.25;3.72;;;;;;;;;;5116322;28;20039;-85
2023/05/20 14:01:15;;;;;;;8.25;3.88;;;;;;;;;;5114362;28;20036;-82
2023/05/20 14:04:00;;;;;;;7.05;3.67;;;;;;;;;;5114143;28;20048;-83
2023/05/20 14:06:46;;;;;;;7.55;3.40;;;;;;;;;;5113843;28;20039;-86
2023/05/20 14:09:31;;;;;;;6.53;3.90;;;;;;;;;;5105732;28;20048;-85
2023/05/20 14:12:16;;;;;;;7.78;4.03;;;;;;;;;;5114369;28;20270;-78
2023/05/20 14:15:02;;;;;;;6.70;3.75;;;;;;;;;;5113831;28;20043;-83
2023/05/20 14:17:47;;;;;;;7.57;3.78;;;;;;;;;;5112820;28;20048;-84
2023/05/20 14:20:33;;;;;;;7.10;3.88;;;;;;;;;;5113367;28;20401;-80
2023/05/20 14:23:18;;;;;;;7.22;3.53;;;;;;;;;;5113053;28;20040;-79
2023/05/20 14:26:04;;;;;;;9.27;3.88;;;;;;;;;;5112697;28;20048;-79
2023/05/20 14:28:50;;;;;;;6.55;3.90;;;;;;;;;;5110900;28;20040;-82
2023/05/20 14:31:37;;;;;;;6.50;4.05;;;;;;;;;;5111591;28;20489;-79
2023/05/20 14:34:23;;;;;;;6.97;3.78;;;;;;;;;;5112146;28;20627;-80
2023/05/20 14:37:10;;;;;;;6.38;4.28;;;;;;;;;;5111740;28;20056;-81
2023/05/20 14:39:56;;;;;;;6.10;3.92;;;;;;;;;;5111558;28;20048;-80
2023/05/20 14:42:41;;;;;;;5.75;3.75;;;;;;;;;;5112414;28;20051;-82
2023/05/20 14:45:27;;;;;;;5.72;3.90;;;;;;;;;;5112791;28;20051;-82
2023/05/20 14:48:13;;;;;;;8.10;3.90;;;;;;;;;;5112660;28;20043;-84
2023/05/20 14:50:58;;;;;;;7.95;4.10;;;;;;;;;;5112916;28;20056;-82
2023/05/20 14:53:44;;;;;;;7.47;3.78;;;;;;;;;;5113188;28;20047;-79
2023/05/20 14:56:30;;;;;;;8.30;3.30;;;;;;;;;;5114200;28;20405;-80
2023/05/20 14:59:15;;;;;;;5.55;3.22;;;;;;;;;;5113682;28;20421;-80
2023/05/20 15:02:00;;;;;;;7.93;3.30;;;;;;;;;;5113118;28;20040;-79
2023/05/20 15:04:47;;;;;;;5.05;3.28;;;;;;;;;;5112541;28;20487;-80
2023/05/20 15:07:33;;;;;;;4.78;3.58;;;;;;;;;;5113685;28;20051;-82
2023/05/20 15:10:19;;;;;;;5.78;3.15;;;;;;;;;;5112914;28;20044;-79
2023/05/20 15:13:04;;;;;;;4.68;3.58;;;;;;;;;;5113614;28;20040;-80
2023/05/20 15:15:49;;;;;;;7.40;3.80;;;;;;;;;;5112319;28;20043;-82
2023/05/20 15:18:35;;;;;;;4.13;2.97;;;;;;;;;;5115553;28;20047;-79
2023/05/20 15:21:20;;;;;;;5.50;3.80;;;;;;;;;;5116232;28;20401;-80
2023/05/20 15:24:05;;;;;;;7.95;3.88;;;;;;;;;;5117210;28;20044;-79
2023/05/20 15:26:52;;;;;;;6.07;3.90;;;;;;;;;;5116631;28;20039;-82
2023/05/20 15:29:37;;;;;;;6.90;3.30;;;;;;;;;;5117833;28;20052;-80
2023/05/20 15:32:23;;;;;;;5.18;4.07;;;;;;;;;;5116903;28;20489;-82
2023/05/20 15:35:09;;;;;;;6.93;4.50;;;;;;;;;;5116021;28;20051;-80
2023/05/20 15:37:55;;;;;;;8.93;3.78;;;;;;;;;;5116535;28;20047;-81
2023/05/20 15:40:40;;;;;;;5.75;3.47;;;;;;;;;;5116424;28;20040;-82
2023/05/20 15:43:26;;;;;;;11.23;3.50;;;;;;;;;;5115725;28;20047;-82
2023/05/20 15:46:12;;;;;;;8.73;4.18;;;;;;;;;;5116137;28;20044;-84
2023/05/20 15:48:57;;;;;;;6.80;3.83;;;;;;;;;;5115529;28;20484;-82
2023/05/20 15:52:01;;;;;;;9.20;4.60;;;;;;;;;;5116541;28;20392;-80
2023/05/20 15:54:47;;;;;;;5.95;4.57;;;;;;;;;;5116409;28;20051;-79
2023/05/20 15:57:32;;;;;;;8.25;4.32;;;;;;;;;;5114188;28;20048;-83
2023/05/20 16:00:19;;;;;;;7.05;4.28;;;;;;;;;;5115524;28;20051;-82
2023/05/20 16:03:05;;;;;;;8.43;4.80;;;;;;;;;;5116258;28;20059;-82
2023/05/20 16:05:50;;;;;;;7.30;4.43;;;;;;;;;;5115959;28;20039;-83
2023/05/20 16:08:39;;;;;;;11.02;4.78;;;;;;;;;;5116282;28;20043;-83
2023/05/20 16:11:24;;;;;;;8.05;4.72;;;;;;;;;;5116210;28;20393;-82
2023/05/20 16:14:10;;;;;;;5.93;4.10;;;;;;;;;;5116235;28;20036;-79
2023/05/20 16:16:57;;;;;;;8.15;4.40;;;;;;;;;;5116397;28;20485;-80
2023/05/20 16:19:42;;;;;;;6.43;4.63;;;;;;;;;;5115114;28;20032;-79
2023/05/20 16:22:28;;;;;;;6.88;4.20;;;;;;;;;;5114316;28;20051;-78